createdAt,value
2023-03-07T00:00:08.498Z,0
2023-03-07T00:01:48.342Z,0
2023-03-07T00:03:28.037Z,0
2023-03-07T00:05:07.800Z,0
2023-03-07T00:06:47.566Z,0
2023-03-07T00:08:27.316Z,0
2023-03-07T00:10:07.097Z,0
2023-03-07T00:11:46.850Z,0
2023-03-07T00:13:26.610Z,0
2023-03-07T00:15:06.381Z,0
2023-03-07T00:16:46.137Z,0
2023-03-07T00:18:25.905Z,0
2023-03-07T00:20:05.670Z,0
2023-03-07T00:21:45.423Z,0
2023-03-07T00:23:25.197Z,0
2023-03-07T00:25:04.967Z,0
2023-03-07T00:26:44.732Z,0
2023-03-07T00:28:24.492Z,0
2023-03-07T00:30:04.271Z,0
2023-03-07T00:31:44.014Z,0
2023-03-07T00:33:23.774Z,0
2023-03-07T00:35:03.553Z,0
2023-03-07T00:36:43.310Z,0
2023-03-07T00:38:23.067Z,0
2023-03-07T00:40:02.837Z,0
2023-03-07T00:41:42.603Z,0
2023-03-07T00:43:22.361Z,0
2023-03-07T00:45:02.125Z,0
2023-03-07T00:46:41.889Z,0
2023-03-07T00:48:21.664Z,0
2023-03-07T00:50:01.413Z,0
2023-03-07T00:51:41.196Z,0
2023-03-07T00:53:20.934Z,0
2023-03-07T00:55:00.704Z,0
2023-03-07T00:56:40.490Z,0
2023-03-07T00:58:20.257Z,0
2023-03-07T00:59:59.993Z,0
2023-03-07T01:01:39.772Z,0
2023-03-07T01:03:19.588Z,0
2023-03-07T01:04:59.291Z,0
2023-03-07T01:06:39.052Z,0
2023-03-07T01:08:18.822Z,0
2023-03-07T01:09:58.577Z,0
2023-03-07T01:11:38.357Z,0
2023-03-07T01:13:18.118Z,0
2023-03-07T01:14:57.883Z,0
2023-03-07T01:16:37.651Z,0
2023-03-07T01:18:17.409Z,0
2023-03-07T01:19:57.188Z,0
2023-03-07T01:21:36.953Z,0
2023-03-07T01:23:16.691Z,0
2023-03-07T01:24:56.452Z,0
2023-03-07T01:26:36.237Z,0
2023-03-07T01:28:15.991Z,0
2023-03-07T01:29:55.747Z,0
2023-03-07T01:31:35.507Z,0
2023-03-07T01:33:15.282Z,0
2023-03-07T01:34:55.061Z,0
2023-03-07T01:36:34.944Z,0
2023-03-07T01:38:14.572Z,0
2023-03-07T01:39:54.329Z,0
2023-03-07T01:41:34.100Z,0
2023-03-07T01:43:13.861Z,0
2023-03-07T01:44:53.699Z,0
2023-03-07T01:46:33.406Z,0
2023-03-07T01:48:13.142Z,0
2023-03-07T01:49:52.908Z,0
2023-03-07T01:51:32.708Z,0
2023-03-07T01:53:12.446Z,0
2023-03-07T01:54:52.200Z,0
2023-03-07T01:56:31.966Z,0
2023-03-07T01:58:11.729Z,0
2023-03-07T01:59:51.486Z,0
2023-03-07T02:01:31.263Z,0
2023-03-07T02:03:11.024Z,0
2023-03-07T02:04:50.792Z,0
2023-03-07T02:06:30.539Z,0
2023-03-07T02:08:10.324Z,0
2023-03-07T02:09:50.068Z,0
2023-03-07T02:11:29.848Z,0
2023-03-07T02:13:09.613Z,0
2023-03-07T02:14:49.354Z,0
2023-03-07T02:16:29.133Z,0
2023-03-07T02:18:08.903Z,0
2023-03-07T02:19:48.666Z,0
2023-03-07T02:21:28.468Z,0
2023-03-07T02:23:08.175Z,0
2023-03-07T02:24:47.977Z,0
2023-03-07T02:26:27.711Z,0
2023-03-07T02:28:07.498Z,0
2023-03-07T02:29:47.262Z,0
2023-03-07T02:31:27.000Z,0
2023-03-07T02:33:06.799Z,0
2023-03-07T02:34:46.544Z,0
2023-03-07T02:36:26.298Z,0
2023-03-07T02:38:06.069Z,0
2023-03-07T02:39:45.828Z,0
2023-03-07T02:41:25.592Z,0
2023-03-07T02:43:05.346Z,0
2023-03-07T02:44:45.111Z,0
2023-03-07T02:46:24.880Z,0
2023-03-07T02:48:04.641Z,0
2023-03-07T02:49:44.410Z,0
2023-03-07T02:51:24.171Z,0
2023-03-07T02:53:03.929Z,0
2023-03-07T02:54:43.696Z,0
2023-03-07T02:56:23.461Z,0
2023-03-07T02:58:03.250Z,0
2023-03-07T02:59:42.984Z,0
2023-03-07T03:01:22.746Z,0
2023-03-07T03:03:02.516Z,0
2023-03-07T03:04:42.286Z,0
2023-03-07T03:06:22.051Z,0
2023-03-07T03:08:01.815Z,0
2023-03-07T03:09:41.591Z,0
2023-03-07T03:11:21.346Z,0
2023-03-07T03:13:01.100Z,0
2023-03-07T03:14:40.901Z,0
2023-03-07T03:16:20.633Z,0
2023-03-07T03:18:00.390Z,0
2023-03-07T03:19:40.169Z,0
2023-03-07T03:21:19.968Z,0
2023-03-07T03:22:59.712Z,0
2023-03-07T03:24:39.465Z,0
2023-03-07T03:26:19.204Z,0
2023-03-07T03:27:58.981Z,0
2023-03-07T03:29:38.753Z,0
2023-03-07T03:31:18.498Z,0
2023-03-07T03:32:58.272Z,0
2023-03-07T03:34:38.042Z,0
2023-03-07T03:36:17.816Z,0
2023-03-07T03:37:57.562Z,0
2023-03-07T03:39:37.345Z,0
2023-03-07T03:41:17.082Z,0
2023-03-07T03:42:56.865Z,0
2023-03-07T03:44:36.615Z,0
2023-03-07T03:46:16.378Z,0
2023-03-07T03:47:56.163Z,0
2023-03-07T03:49:35.936Z,0
2023-03-07T03:51:15.695Z,0
2023-03-07T03:52:55.438Z,0
2023-03-07T03:54:35.202Z,0
2023-03-07T03:56:14.969Z,0
2023-03-07T03:57:54.724Z,0
2023-03-07T03:59:34.499Z,0
2023-03-07T04:01:14.246Z,0
2023-03-07T04:02:54.014Z,0
2023-03-07T04:04:33.774Z,0
2023-03-07T04:06:13.550Z,0
2023-03-07T04:07:53.313Z,0
2023-03-07T04:09:33.066Z,0
2023-03-07T04:11:12.833Z,0
2023-03-07T04:12:52.607Z,0
2023-03-07T04:14:32.365Z,0
2023-03-07T04:16:12.132Z,0
2023-03-07T04:17:51.881Z,0
2023-03-07T04:19:31.651Z,0
2023-03-07T04:21:11.415Z,0
2023-03-07T04:22:51.174Z,0
2023-03-07T04:24:30.946Z,0
2023-03-07T04:26:10.711Z,0
2023-03-07T04:27:50.485Z,0
2023-03-07T04:29:30.232Z,0
2023-03-07T04:31:10.013Z,0
2023-03-07T04:32:49.760Z,0
2023-03-07T04:34:29.513Z,0
2023-03-07T04:36:09.296Z,0
2023-03-07T04:37:49.070Z,0
2023-03-07T04:39:28.815Z,0
2023-03-07T04:41:08.583Z,0
2023-03-07T04:42:48.339Z,0
2023-03-07T04:44:28.114Z,0
2023-03-07T04:46:07.881Z,0
2023-03-07T04:47:47.635Z,0
2023-03-07T04:49:27.401Z,0
2023-03-07T04:51:07.171Z,0
2023-03-07T04:52:46.927Z,0
2023-03-07T04:54:26.748Z,0
2023-03-07T04:56:06.466Z,0
2023-03-07T04:57:46.251Z,0
2023-03-07T04:59:26.012Z,0
2023-03-07T05:01:05.745Z,0
2023-03-07T05:02:45.517Z,0
2023-03-07T05:04:25.264Z,0
2023-03-07T05:06:05.036Z,0
2023-03-07T05:07:44.808Z,0
2023-03-07T05:09:24.568Z,0
2023-03-07T05:11:04.327Z,0
2023-03-07T05:12:44.089Z,0
2023-03-07T05:14:23.847Z,0
2023-03-07T05:16:03.614Z,0
2023-03-07T05:17:43.392Z,0
2023-03-07T05:19:23.152Z,0
2023-03-07T05:21:02.926Z,0
2023-03-07T05:22:42.695Z,0
2023-03-07T05:24:22.442Z,0
2023-03-07T05:26:02.259Z,0
2023-03-07T05:27:42.028Z,0
2023-03-07T05:29:21.732Z,0
2023-03-07T05:31:01.490Z,0
2023-03-07T05:32:41.257Z,0
2023-03-07T05:34:21.030Z,0
2023-03-07T05:36:00.798Z,0
2023-03-07T05:37:40.543Z,0
2023-03-07T05:39:20.357Z,0
2023-03-07T05:41:00.073Z,0
2023-03-07T05:42:39.845Z,0
2023-03-07T05:44:19.621Z,0
2023-03-07T05:45:59.365Z,0
2023-03-07T05:47:39.150Z,0
2023-03-07T05:49:18.971Z,0
2023-03-07T05:50:58.656Z,0
2023-03-07T05:52:38.422Z,0
2023-03-07T05:54:18.195Z,0
2023-03-07T05:55:57.953Z,0
2023-03-07T05:57:37.734Z,0
2023-03-07T05:59:17.482Z,0
2023-03-07T06:00:57.242Z,0
2023-03-07T06:02:37.003Z,0
2023-03-07T06:04:16.777Z,0
2023-03-07T06:05:56.524Z,0
2023-03-07T06:07:36.305Z,0
2023-03-07T06:09:16.072Z,0
2023-03-07T06:10:55.826Z,0
2023-03-07T06:12:35.596Z,0
2023-03-07T06:14:15.352Z,0
2023-03-07T06:15:55.117Z,0
2023-03-07T06:17:34.870Z,0
2023-03-07T06:19:14.637Z,0
2023-03-07T06:20:54.403Z,0
2023-03-07T06:22:34.178Z,0
2023-03-07T06:24:13.964Z,0
2023-03-07T06:25:53.699Z,0
2023-03-07T06:27:33.458Z,0
2023-03-07T06:29:13.236Z,0
2023-03-07T06:30:53.008Z,0
2023-03-07T06:32:32.772Z,0
2023-03-07T06:34:12.557Z,0
2023-03-07T06:35:52.357Z,0
2023-03-07T06:37:32.073Z,0
2023-03-07T06:39:11.816Z,0
2023-03-07T06:40:51.573Z,0
2023-03-07T06:42:31.346Z,0
2023-03-07T06:44:11.117Z,0
2023-03-07T06:45:50.859Z,0
2023-03-07T06:47:30.632Z,0
2023-03-07T06:49:10.423Z,0
2023-03-07T06:50:50.168Z,0
2023-03-07T06:52:29.941Z,0
2023-03-07T06:54:09.724Z,0
2023-03-07T06:55:49.455Z,0
2023-03-07T06:57:29.224Z,0
2023-03-07T06:59:08.985Z,0.01
2023-03-07T07:00:48.895Z,0
2023-03-07T07:02:28.526Z,0.01
2023-03-07T07:04:08.285Z,0.03
2023-03-07T07:05:48.043Z,0.04
2023-03-07T07:07:27.805Z,0.05
2023-03-07T07:09:07.587Z,0.04
2023-03-07T07:10:47.336Z,0.03
2023-03-07T07:12:27.089Z,0.06
2023-03-07T07:14:06.864Z,0.06
2023-03-07T07:15:46.626Z,0.07
2023-03-07T07:17:26.375Z,0.1
2023-03-07T07:19:06.151Z,0.06
2023-03-07T07:20:45.927Z,0.07
2023-03-07T07:22:25.693Z,0.08
2023-03-07T07:24:05.465Z,0.09
2023-03-07T07:25:45.225Z,0.08
2023-03-07T07:27:24.989Z,0.08
2023-03-07T07:29:04.736Z,0.13
2023-03-07T07:30:44.506Z,0.19
2023-03-07T07:32:24.248Z,0.17
2023-03-07T07:34:04.053Z,0.18
2023-03-07T07:35:43.776Z,0.18
2023-03-07T07:37:23.634Z,0.18
2023-03-07T07:39:03.320Z,0.17
2023-03-07T07:40:43.106Z,0.12
2023-03-07T07:42:22.848Z,0.16
2023-03-07T07:44:02.615Z,0.21
2023-03-07T07:45:42.382Z,0.23
2023-03-07T07:47:22.138Z,0.26
2023-03-07T07:49:01.903Z,0.28
2023-03-07T07:50:41.672Z,0.2
2023-03-07T07:52:21.481Z,0.19
2023-03-07T07:54:01.181Z,0.18
2023-03-07T07:55:40.967Z,0.18
2023-03-07T07:57:20.721Z,0.17
2023-03-07T07:59:00.497Z,0.17
2023-03-07T08:00:40.270Z,0.17
2023-03-07T08:02:20.104Z,0.11
2023-03-07T08:03:59.784Z,0.11
2023-03-07T08:05:39.597Z,0.13
2023-03-07T08:07:19.317Z,0.14
2023-03-07T08:08:59.157Z,0.11
2023-03-07T08:10:38.854Z,0.12
2023-03-07T08:12:18.684Z,0.1
2023-03-07T08:13:58.374Z,0.09
2023-03-07T08:15:38.129Z,0.09
2023-03-07T08:17:17.934Z,0.13
2023-03-07T08:18:57.738Z,0.18
2023-03-07T08:20:37.428Z,0.23
2023-03-07T08:22:17.197Z,0.22
2023-03-07T08:23:57.007Z,0.17
2023-03-07T08:25:36.711Z,0.14
2023-03-07T08:27:16.538Z,0.09
2023-03-07T08:28:56.334Z,0.08
2023-03-07T08:30:36.031Z,0.14
2023-03-07T08:32:15.772Z,0.19
2023-03-07T08:33:55.624Z,0.22
2023-03-07T08:35:35.317Z,0.24
2023-03-07T08:37:15.114Z,0.23
2023-03-07T08:38:54.824Z,0.15
2023-03-07T08:40:34.609Z,0.17
2023-03-07T08:42:14.372Z,0.25
2023-03-07T08:43:54.236Z,0.3
2023-03-07T08:45:33.914Z,0.32
2023-03-07T08:47:13.661Z,0
2023-03-07T08:48:53.412Z,0.13
2023-03-07T08:50:33.230Z,0.13
2023-03-07T08:52:13.011Z,0.13
2023-03-07T08:53:52.743Z,0.13
2023-03-07T08:55:32.467Z,0.13
2023-03-07T08:57:12.382Z,0.12
2023-03-07T08:58:52.065Z,0.12
2023-03-07T09:00:31.795Z,0.12
2023-03-07T09:02:11.535Z,0.12
2023-03-07T09:03:51.284Z,0.12
2023-03-07T09:05:31.061Z,0.13
2023-03-07T09:07:10.813Z,0.12
2023-03-07T09:08:50.575Z,0.12
2023-03-07T09:10:30.327Z,0.12
2023-03-07T09:12:10.104Z,0.12
2023-03-07T09:13:49.891Z,0.12
2023-03-07T09:15:29.627Z,0.12
2023-03-07T09:17:09.406Z,0.12
2023-03-07T09:18:49.157Z,0.12
2023-03-07T09:20:28.927Z,0.12
2023-03-07T09:22:08.677Z,0.11
2023-03-07T09:23:48.440Z,0.11
2023-03-07T09:25:28.217Z,0.11
2023-03-07T09:27:07.985Z,0.11
2023-03-07T09:28:47.765Z,0.11
2023-03-07T09:30:27.510Z,0.11
2023-03-07T09:32:07.275Z,0.11
2023-03-07T09:33:47.026Z,0.11
2023-03-07T09:35:26.803Z,0.1
2023-03-07T09:37:06.554Z,0.1
2023-03-07T09:38:46.323Z,0.09
2023-03-07T09:40:26.099Z,0.09
2023-03-07T09:42:05.849Z,0.09
2023-03-07T09:43:45.662Z,0.1
2023-03-07T09:45:25.426Z,0.09
2023-03-07T09:47:05.153Z,0.09
2023-03-07T09:48:44.915Z,0.08
2023-03-07T09:50:24.666Z,0.08
2023-03-07T09:52:04.432Z,0.08
2023-03-07T09:53:44.236Z,0.08
2023-03-07T09:55:23.970Z,0.08
2023-03-07T09:57:03.754Z,0.08
2023-03-07T09:58:43.490Z,0.08
2023-03-07T10:00:23.250Z,0.08
2023-03-07T10:02:03.010Z,0.08
2023-03-07T10:03:42.827Z,0.07
2023-03-07T10:05:22.554Z,0.07
2023-03-07T10:07:02.337Z,0.07
2023-03-07T10:08:42.136Z,0.07
2023-03-07T10:10:21.844Z,0.07
2023-03-07T10:12:01.598Z,0.07
2023-03-07T10:13:41.361Z,0.07
2023-03-07T10:15:21.153Z,0.06
2023-03-07T10:17:01.010Z,0.06
2023-03-07T10:18:40.671Z,0.06
2023-03-07T10:20:20.435Z,0.06
2023-03-07T10:22:00.207Z,0.06
2023-03-07T10:23:39.956Z,0.06
2023-03-07T10:25:19.716Z,0.06
2023-03-07T10:26:59.488Z,0.05
2023-03-07T10:28:39.240Z,0.06
2023-03-07T10:30:19.016Z,0.05
2023-03-07T10:31:58.763Z,0.05
2023-03-07T10:33:38.521Z,0.05
2023-03-07T10:35:18.307Z,0.05
2023-03-07T10:36:58.059Z,0.05
2023-03-07T10:38:37.825Z,0.05
2023-03-07T10:40:17.590Z,0.04
2023-03-07T10:41:57.375Z,0.04
2023-03-07T10:43:37.163Z,0.05
2023-03-07T10:45:16.878Z,0.04
2023-03-07T10:46:56.665Z,0.04
2023-03-07T10:48:36.473Z,0.05
2023-03-07T10:50:16.169Z,0.04
2023-03-07T10:51:55.930Z,0.04
2023-03-07T10:53:35.747Z,0.04
2023-03-07T10:55:15.468Z,0.04
2023-03-07T10:56:55.229Z,0.04
2023-03-07T10:58:35.026Z,0.03
2023-03-07T11:00:14.734Z,0.04
2023-03-07T11:01:54.518Z,0.04
2023-03-07T11:03:34.262Z,0.03
2023-03-07T11:05:14.036Z,0.03
2023-03-07T11:06:53.826Z,0.04
2023-03-07T11:08:33.665Z,0.03
2023-03-07T11:10:13.316Z,0.03
2023-03-07T11:11:53.109Z,0.03
2023-03-07T11:13:32.874Z,0.03
2023-03-07T11:15:12.665Z,0.04
2023-03-07T11:16:52.404Z,0.04
2023-03-07T11:18:32.342Z,0.03
2023-03-07T11:20:11.922Z,0.04
2023-03-07T11:21:51.797Z,0.03
2023-03-07T11:23:31.633Z,0.03
2023-03-07T11:25:11.216Z,0.03
2023-03-07T11:26:50.971Z,0.03
2023-03-07T11:28:30.719Z,0.03
2023-03-07T11:30:10.482Z,0.03
2023-03-07T11:31:50.393Z,0.03
2023-03-07T11:33:30.036Z,0.03
2023-03-07T11:35:09.908Z,0.03
2023-03-07T11:36:49.549Z,0.03
2023-03-07T11:38:29.317Z,0.03
2023-03-07T11:40:09.074Z,0.03
2023-03-07T11:41:48.841Z,0.03
2023-03-07T11:43:28.624Z,0.03
2023-03-07T11:45:08.369Z,0.03
2023-03-07T11:46:48.126Z,0.03
2023-03-07T11:48:27.897Z,0.03
2023-03-07T11:50:07.667Z,0.03
2023-03-07T11:51:47.416Z,0.03
2023-03-07T11:53:27.190Z,0.03
2023-03-07T11:55:06.943Z,0.03
2023-03-07T11:56:46.736Z,0.03
2023-03-07T11:58:26.478Z,0.03
2023-03-07T12:00:06.264Z,0.02
2023-03-07T12:01:46.007Z,0.03
2023-03-07T12:03:25.804Z,0.03
2023-03-07T12:05:05.544Z,0.03
2023-03-07T12:06:45.295Z,0.03
2023-03-07T12:08:25.076Z,0.03
2023-03-07T12:10:04.853Z,0.03
2023-03-07T12:11:44.593Z,0.03
2023-03-07T12:13:24.383Z,0.03
2023-03-07T12:15:04.139Z,0.02
2023-03-07T12:16:43.893Z,0.03
2023-03-07T12:18:23.656Z,0.03
2023-03-07T12:20:03.432Z,0.02
2023-03-07T12:21:43.169Z,0.02
2023-03-07T12:23:22.984Z,0.03
2023-03-07T12:25:02.711Z,0.02
2023-03-07T12:26:42.465Z,0.03
2023-03-07T12:28:22.237Z,0.03
2023-03-07T12:30:02.004Z,0.03
2023-03-07T12:31:41.904Z,0.02
2023-03-07T12:33:21.674Z,0.03
2023-03-07T12:35:01.310Z,0.03
2023-03-07T12:36:41.088Z,0.02
2023-03-07T12:38:20.828Z,0.03
2023-03-07T12:40:00.615Z,0.02
2023-03-07T12:41:40.360Z,0.02
2023-03-07T12:43:20.248Z,0.02
2023-03-07T12:45:00.063Z,0.02
2023-03-07T12:46:39.801Z,0.02
2023-03-07T12:48:19.428Z,0.02
2023-03-07T12:49:59.251Z,0.02
2023-03-07T12:51:38.959Z,0.03
2023-03-07T12:53:18.764Z,0.03
2023-03-07T12:54:58.476Z,0.02
2023-03-07T12:56:38.233Z,0.02
2023-03-07T12:58:18.015Z,0.02
2023-03-07T12:59:57.744Z,0.02
2023-03-07T13:01:37.528Z,0.03
2023-03-07T13:03:17.310Z,0.02
2023-03-07T13:04:57.031Z,0.03
2023-03-07T13:06:36.921Z,0.02
2023-03-07T13:08:16.738Z,0.02
2023-03-07T13:09:56.331Z,0.02
2023-03-07T13:11:36.308Z,0.02
2023-03-07T13:13:15.984Z,0.02
2023-03-07T13:14:55.620Z,0.02
2023-03-07T13:16:35.396Z,0.02
2023-03-07T13:18:15.147Z,0.02
2023-03-07T13:19:54.900Z,0.03
2023-03-07T13:21:34.735Z,0.02
2023-03-07T13:23:14.442Z,0.03
2023-03-07T13:24:54.267Z,0.02
2023-03-07T13:26:33.965Z,0.03
2023-03-07T13:28:13.723Z,0.03
2023-03-07T13:29:53.481Z,0.03
2023-03-07T13:31:33.243Z,0.02
2023-03-07T13:33:13.017Z,0.02
2023-03-07T13:34:52.930Z,0.02
2023-03-07T13:36:32.682Z,0.02
2023-03-07T13:38:12.460Z,0.02
2023-03-07T13:39:52.232Z,0.02
2023-03-07T13:41:31.840Z,0.02
2023-03-07T13:43:11.631Z,0.02
2023-03-07T13:44:51.353Z,0.02
2023-03-07T13:46:31.212Z,0.02
2023-03-07T13:48:10.893Z,0.02
2023-03-07T13:49:50.700Z,0.02
2023-03-07T13:51:30.412Z,0.02
2023-03-07T13:53:10.198Z,0.02
2023-03-07T13:54:49.943Z,0.02
2023-03-07T13:56:29.764Z,0.02
2023-03-07T13:58:09.543Z,0.02
2023-03-07T13:59:49.267Z,0.02
2023-03-07T14:01:29.004Z,0.02
2023-03-07T14:03:08.884Z,0.02
2023-03-07T14:04:48.662Z,0.02
2023-03-07T14:06:28.292Z,0.02
2023-03-07T14:08:08.190Z,0.03
2023-03-07T14:09:47.950Z,0.02
2023-03-07T14:11:27.584Z,0.02
2023-03-07T14:13:07.350Z,0.02
2023-03-07T14:14:47.300Z,0.02
2023-03-07T14:16:26.896Z,0.02
2023-03-07T14:18:06.772Z,0.02
2023-03-07T14:19:46.505Z,0.02
2023-03-07T14:21:26.226Z,0.02
2023-03-07T14:23:06.040Z,0.02
2023-03-07T14:24:45.749Z,0.02
2023-03-07T14:26:25.619Z,0.03
2023-03-07T14:28:05.243Z,0.02
2023-03-07T14:29:45.008Z,0.02
2023-03-07T14:31:24.780Z,0.02
2023-03-07T14:33:04.551Z,0.02
2023-03-07T14:34:44.285Z,0.03
2023-03-07T14:36:24.053Z,0.02
2023-03-07T14:38:03.993Z,0.02
2023-03-07T14:39:43.563Z,0.02
2023-03-07T14:41:23.345Z,0.02
2023-03-07T14:43:03.116Z,0.02
2023-03-07T14:44:42.897Z,0.01
2023-03-07T14:46:22.678Z,0.02
2023-03-07T14:48:02.399Z,0.02
2023-03-07T14:49:42.166Z,0.02
2023-03-07T14:51:21.930Z,0.02
2023-03-07T14:53:01.700Z,0.02
2023-03-07T14:54:41.544Z,0.02
2023-03-07T14:56:21.234Z,0.02
2023-03-07T14:58:00.977Z,0.02
2023-03-07T14:59:40.742Z,0.02
2023-03-07T15:01:20.505Z,0.02
2023-03-07T15:03:00.268Z,0.02
2023-03-07T15:04:40.112Z,0.02
2023-03-07T15:06:19.802Z,0.02
2023-03-07T15:07:59.614Z,0.02
2023-03-07T15:09:39.323Z,0.02
2023-03-07T15:11:19.141Z,0.02
2023-03-07T15:12:58.865Z,0.02
2023-03-07T15:14:38.631Z,0.02
2023-03-07T15:16:18.374Z,0.02
2023-03-07T15:17:58.145Z,0.02
2023-03-07T15:19:37.928Z,0.02
2023-03-07T15:21:17.712Z,0.02
2023-03-07T15:22:57.426Z,0.02
2023-03-07T15:24:37.219Z,0.02
2023-03-07T15:26:16.969Z,0.02
2023-03-07T15:27:56.761Z,0.02
2023-03-07T15:29:36.500Z,0.01
2023-03-07T15:31:16.284Z,0.02
2023-03-07T15:32:56.062Z,0.02
2023-03-07T15:34:35.880Z,0.02
2023-03-07T15:36:15.650Z,0.02
2023-03-07T15:37:55.387Z,0.02
2023-03-07T15:39:35.081Z,0.02
2023-03-07T15:41:14.841Z,0.02
2023-03-07T15:42:54.601Z,0.02
2023-03-07T15:44:34.378Z,0.02
2023-03-07T15:46:14.139Z,0.01
2023-03-07T15:47:53.894Z,0.02
2023-03-07T15:49:33.676Z,0.03
2023-03-07T15:51:13.427Z,0.01
2023-03-07T15:52:53.229Z,0.02
2023-03-07T15:54:33.079Z,0.02
2023-03-07T15:56:12.713Z,0.02
2023-03-07T15:57:52.655Z,0.02
2023-03-07T15:59:32.243Z,0.02
2023-03-07T16:01:12.013Z,0.02
2023-03-07T16:02:51.905Z,0.02
2023-03-07T16:04:31.623Z,0.01
2023-03-07T16:06:11.316Z,0.02
2023-03-07T16:07:51.062Z,0.02
2023-03-07T16:09:30.828Z,0.02
2023-03-07T16:11:10.593Z,0.02
2023-03-07T16:12:50.352Z,0.02
2023-03-07T16:14:30.161Z,0.02
2023-03-07T16:16:09.886Z,0.02
2023-03-07T16:17:49.643Z,0.02
2023-03-07T16:19:29.438Z,0.02
2023-03-07T16:21:09.171Z,0.02
2023-03-07T16:22:48.953Z,0.02
2023-03-07T16:24:28.852Z,0.02
2023-03-07T16:26:08.477Z,0.02
2023-03-07T16:27:48.257Z,0.02
2023-03-07T16:29:28.042Z,0.02
2023-03-07T16:31:07.855Z,0.02
2023-03-07T16:32:47.517Z,0.01
2023-03-07T16:34:27.290Z,0.02
2023-03-07T16:36:07.126Z,0.02
2023-03-07T16:37:46.797Z,0.01
2023-03-07T16:39:26.577Z,0
2023-03-07T16:41:06.397Z,0
2023-03-07T16:42:46.153Z,0.01
2023-03-07T16:44:26.001Z,0
2023-03-07T16:46:05.724Z,0
2023-03-07T16:47:45.571Z,0
2023-03-07T16:49:25.292Z,0
2023-03-07T16:51:04.961Z,0
2023-03-07T16:52:44.667Z,0
2023-03-07T16:54:24.586Z,0
2023-03-07T16:56:04.234Z,0
2023-03-07T16:57:43.973Z,0
2023-03-07T16:59:23.727Z,0
2023-03-07T17:01:03.499Z,0
2023-03-07T17:02:43.280Z,0
2023-03-07T17:04:23.080Z,0
2023-03-07T17:06:02.798Z,0
2023-03-07T17:07:42.548Z,0
2023-03-07T17:09:22.398Z,0
2023-03-07T17:11:02.112Z,0
2023-03-07T17:12:41.835Z,0
2023-03-07T17:14:21.612Z,0
2023-03-07T17:16:01.461Z,0
2023-03-07T17:17:41.134Z,0
2023-03-07T17:19:21.036Z,0
2023-03-07T17:21:00.665Z,0
2023-03-07T17:22:40.422Z,0
2023-03-07T17:24:20.199Z,0
2023-03-07T17:25:59.953Z,0
2023-03-07T17:27:39.714Z,0
2023-03-07T17:29:19.486Z,0
2023-03-07T17:30:59.251Z,0
2023-03-07T17:32:39.020Z,0
2023-03-07T17:34:18.779Z,0
2023-03-07T17:35:58.539Z,0
2023-03-07T17:37:38.321Z,0
2023-03-07T17:39:18.076Z,0
2023-03-07T17:40:57.833Z,0
2023-03-07T17:42:37.611Z,0
2023-03-07T17:44:17.355Z,0
2023-03-07T17:45:57.135Z,0
2023-03-07T17:47:36.894Z,0
2023-03-07T17:49:16.652Z,0
2023-03-07T17:50:56.409Z,0
2023-03-07T17:52:36.192Z,0
2023-03-07T17:54:15.936Z,0
2023-03-07T17:55:55.699Z,0
2023-03-07T17:57:35.467Z,0
2023-03-07T17:59:15.225Z,0
2023-03-07T18:00:55.002Z,0
2023-03-07T18:02:34.790Z,0
2023-03-07T18:04:14.513Z,0
2023-03-07T18:05:54.289Z,0
2023-03-07T18:07:34.047Z,0
2023-03-07T18:09:13.822Z,0
2023-03-07T18:10:53.586Z,0
2023-03-07T18:12:33.334Z,0
2023-03-07T18:14:13.116Z,0
2023-03-07T18:15:52.872Z,0
2023-03-07T18:17:32.632Z,0
2023-03-07T18:19:12.438Z,0
2023-03-07T18:20:52.164Z,0
2023-03-07T18:22:31.926Z,0
2023-03-07T18:24:11.692Z,0
2023-03-07T18:25:51.467Z,0
2023-03-07T18:27:31.214Z,0
2023-03-07T18:29:10.985Z,0
2023-03-07T18:30:50.770Z,0
2023-03-07T18:32:30.515Z,0
2023-03-07T18:34:10.267Z,0
2023-03-07T18:35:50.042Z,0
2023-03-07T18:37:29.798Z,0
2023-03-07T18:39:09.557Z,0
2023-03-07T18:40:49.353Z,0
2023-03-07T18:42:29.160Z,0
2023-03-07T18:44:08.906Z,0
2023-03-07T18:45:48.618Z,0
2023-03-07T18:47:28.381Z,0
2023-03-07T18:49:08.162Z,0
2023-03-07T18:50:47.948Z,0
2023-03-07T18:52:27.678Z,0
2023-03-07T18:54:07.436Z,0
2023-03-07T18:55:47.199Z,0
2023-03-07T18:57:26.975Z,0
2023-03-07T18:59:06.729Z,0
2023-03-07T19:00:46.495Z,0
2023-03-07T19:02:26.274Z,0
2023-03-07T19:04:06.054Z,0
2023-03-07T19:05:45.808Z,0
2023-03-07T19:07:25.550Z,0
2023-03-07T19:09:05.333Z,0
2023-03-07T19:10:45.078Z,0
2023-03-07T19:12:24.851Z,0
2023-03-07T19:14:04.597Z,0
2023-03-07T19:15:44.412Z,0
2023-03-07T19:17:24.166Z,0
2023-03-07T19:19:03.905Z,0
2023-03-07T19:20:43.659Z,0
2023-03-07T19:22:23.457Z,0
2023-03-07T19:24:03.190Z,0
2023-03-07T19:25:42.943Z,0
2023-03-07T19:27:22.703Z,0
2023-03-07T19:29:02.507Z,0
2023-03-07T19:30:42.244Z,0
2023-03-07T19:32:22.015Z,0
2023-03-07T19:34:01.799Z,0
2023-03-07T19:35:41.633Z,0
2023-03-07T19:37:21.294Z,0
2023-03-07T19:39:01.066Z,0
2023-03-07T19:40:40.812Z,0
2023-03-07T19:42:20.786Z,0
2023-03-07T19:44:00.372Z,0
2023-03-07T19:45:40.102Z,0
2023-03-07T19:47:19.896Z,0
2023-03-07T19:48:59.629Z,0
2023-03-07T19:50:39.401Z,0
2023-03-07T19:52:19.180Z,0
2023-03-07T19:53:58.991Z,0
2023-03-07T19:55:38.685Z,0
2023-03-07T19:57:18.447Z,0
2023-03-07T19:58:58.258Z,0
2023-03-07T20:00:37.991Z,0
2023-03-07T20:02:17.751Z,0
2023-03-07T20:03:57.580Z,0
2023-03-07T20:05:37.272Z,0
2023-03-07T20:07:17.046Z,0
2023-03-07T20:08:56.828Z,0
2023-03-07T20:10:36.579Z,0
2023-03-07T20:12:16.322Z,0
2023-03-07T20:13:56.142Z,0
2023-03-07T20:15:35.862Z,0
2023-03-07T20:17:15.672Z,0
2023-03-07T20:18:55.428Z,0
2023-03-07T20:20:35.152Z,0
2023-03-07T20:22:14.912Z,0
2023-03-07T20:23:54.706Z,0
2023-03-07T20:25:34.430Z,0
2023-03-07T20:27:14.221Z,0
2023-03-07T20:28:53.978Z,0
2023-03-07T20:30:33.783Z,0
2023-03-07T20:32:13.552Z,0
2023-03-07T20:33:53.342Z,0
2023-03-07T20:35:33.066Z,0
2023-03-07T20:37:12.782Z,0
2023-03-07T20:38:52.549Z,0
2023-03-07T20:40:32.319Z,0
2023-03-07T20:42:12.111Z,0
2023-03-07T20:43:51.847Z,0
2023-03-07T20:45:31.611Z,0
2023-03-07T20:47:11.394Z,0
2023-03-07T20:48:51.143Z,0
2023-03-07T20:50:30.908Z,0
2023-03-07T20:52:10.743Z,0
2023-03-07T20:53:50.449Z,0
2023-03-07T20:55:30.191Z,0
2023-03-07T20:57:09.952Z,0
2023-03-07T20:58:49.762Z,0
2023-03-07T21:00:29.576Z,0
2023-03-07T21:02:09.267Z,0
2023-03-07T21:03:49.028Z,0
2023-03-07T21:05:28.816Z,0
2023-03-07T21:07:08.550Z,0
2023-03-07T21:08:48.341Z,0
2023-03-07T21:10:28.081Z,0
2023-03-07T21:12:07.848Z,0
2023-03-07T21:13:47.604Z,0
2023-03-07T21:15:27.366Z,0
2023-03-07T21:17:07.200Z,0
2023-03-07T21:18:46.932Z,0
2023-03-07T21:20:26.668Z,0
2023-03-07T21:22:06.427Z,0
2023-03-07T21:23:46.174Z,0
2023-03-07T21:25:25.933Z,0
2023-03-07T21:27:05.732Z,0
2023-03-07T21:28:45.468Z,0
2023-03-07T21:30:25.242Z,0
2023-03-07T21:32:05.070Z,0
2023-03-07T21:33:44.769Z,0
2023-03-07T21:35:24.594Z,0
2023-03-07T21:37:04.285Z,0
2023-03-07T21:38:44.056Z,0
2023-03-07T21:40:23.812Z,0
2023-03-07T21:42:03.576Z,0
2023-03-07T21:43:43.390Z,0
2023-03-07T21:45:23.154Z,0
2023-03-07T21:47:02.916Z,0
2023-03-07T21:48:42.696Z,0
2023-03-07T21:50:22.475Z,0
2023-03-07T21:52:02.165Z,0
2023-03-07T21:53:42.117Z,0
2023-03-07T21:55:21.827Z,0
2023-03-07T21:57:01.609Z,0
2023-03-07T21:58:41.413Z,0
2023-03-07T22:00:21.127Z,0
2023-03-07T22:02:00.879Z,0
2023-03-07T22:03:40.649Z,0
2023-03-07T22:05:20.415Z,0
2023-03-07T22:07:00.297Z,0
2023-03-07T22:08:39.936Z,0
2023-03-07T22:10:19.709Z,0
2023-03-07T22:11:59.460Z,0
2023-03-07T22:13:39.232Z,0
2023-03-07T22:15:18.991Z,0
2023-03-07T22:16:58.740Z,0
2023-03-07T22:18:38.540Z,0
2023-03-07T22:20:18.317Z,0
2023-03-07T22:21:58.049Z,0
2023-03-07T22:23:37.812Z,0
2023-03-07T22:25:17.577Z,0
2023-03-07T22:26:57.349Z,0
2023-03-07T22:28:37.096Z,0
2023-03-07T22:30:16.874Z,0
2023-03-07T22:31:56.634Z,0
2023-03-07T22:33:36.386Z,0
2023-03-07T22:35:16.185Z,0
2023-03-07T22:36:55.975Z,0
2023-03-07T22:38:35.684Z,0
2023-03-07T22:40:15.457Z,0
2023-03-07T22:41:55.290Z,0
2023-03-07T22:43:35.002Z,0
2023-03-07T22:45:14.728Z,0
2023-03-07T22:46:54.544Z,0
2023-03-07T22:48:34.283Z,0
2023-03-07T22:50:14.082Z,0
2023-03-07T22:51:53.788Z,0
2023-03-07T22:53:33.551Z,0
2023-03-07T22:55:13.324Z,0
2023-03-07T22:56:53.109Z,0
2023-03-07T22:58:32.848Z,0
2023-03-07T23:00:12.601Z,0
2023-03-07T23:01:52.423Z,0
2023-03-07T23:03:32.130Z,0
2023-03-07T23:05:11.907Z,0
2023-03-07T23:06:51.692Z,0
2023-03-07T23:08:31.441Z,0
2023-03-07T23:10:11.192Z,0
2023-03-07T23:11:50.956Z,0
2023-03-07T23:13:30.732Z,0
2023-03-07T23:15:10.489Z,0
2023-03-07T23:16:50.247Z,0
2023-03-07T23:18:30.018Z,0
2023-03-07T23:20:09.770Z,0
2023-03-07T23:21:49.584Z,0
2023-03-07T23:23:29.305Z,0
2023-03-07T23:25:09.078Z,0
2023-03-07T23:26:48.826Z,0
2023-03-07T23:28:28.608Z,0
2023-03-07T23:30:08.359Z,0